createdAt,value
2022-12-18T09:17:26.104Z,47.60
2022-12-18T09:32:30.732Z,49.60
2022-12-18T09:47:40.445Z,48.00
2022-12-18T10:02:45.214Z,46.90
2022-12-18T10:17:58.726Z,46.10
2022-12-18T10:33:05.049Z,45.00
2022-12-18T10:48:21.112Z,44.20
2022-12-18T11:03:36.664Z,43.50
2022-12-18T11:18:41.731Z,43.10
2022-12-18T11:34:19.812Z,42.70
2022-12-18T11:49:22.671Z,42.20
2022-12-18T12:05:03.176Z,41.90
2022-12-18T12:20:18.508Z,43.30
2022-12-18T12:35:33.866Z,42.30
2022-12-18T12:50:39.862Z,41.80
2022-12-18T13:05:48.440Z,42.10
2022-12-18T13:21:04.215Z,42.50
2022-12-18T13:36:27.501Z,42.70
2022-12-18T13:51:34.989Z,43.00
2022-12-18T14:06:39.914Z,42.80
2022-12-18T14:21:49.190Z,42.80
2022-12-18T14:36:56.933Z,42.20
2022-12-18T14:52:07.005Z,41.70
2022-12-18T15:07:17.289Z,41.50
2022-12-18T15:22:27.936Z,41.40
2022-12-18T15:37:32.434Z,41.10
2022-12-18T15:52:43.260Z,40.90
2022-12-18T16:07:48.128Z,40.80
2022-12-18T16:22:54.034Z,40.80
2022-12-18T16:37:58.550Z,40.80
2022-12-18T16:53:03.076Z,40.70
2022-12-18T17:08:07.770Z,40.70
2022-12-18T17:23:12.311Z,40.80
2022-12-18T17:38:17.522Z,40.80
2022-12-18T17:53:22.068Z,40.70
2022-12-18T18:08:27.089Z,40.70
2022-12-18T18:23:32.751Z,40.70
2022-12-18T18:38:43.061Z,41.20
2022-12-18T18:53:52.825Z,40.80
2022-12-18T19:08:58.240Z,40.80
